Time;durP1;ratioP1;P1;durP2;ratioP2;P2;SDS_P1;SDS_P2;PMS_P1;PMS_P2;Temp;Humidity;BMP_temperature;BMP_pressure;BME280_temperature;BME280_humidity;BME280_pressure;Samples;Min_cycle;Max_cycle;Signal;HPM_P1;HPM_P2
2022/06/16 00:01:55;;;;;;;10.75;4.95;;;;;;;;;;5084129;28;20049;-64
2022/06/16 00:04:23;;;;;;;8.38;5.05;;;;;;;;;;5105214;28;20043;-64
2022/06/16 00:06:49;;;;;;;8.80;4.72;;;;;;;;;;5085919;28;20505;-64
2022/06/16 00:09:15;;;;;;;11.07;4.68;;;;;;;;;;5096937;28;20043;-64
2022/06/16 00:11:41;;;;;;;12.05;4.53;;;;;;;;;;5101351;28;20039;-64
2022/06/16 00:14:07;;;;;;;7.35;4.45;;;;;;;;;;5096310;28;20040;-64
2022/06/16 00:16:34;;;;;;;11.60;5.10;;;;;;;;;;5084898;28;20043;-64
2022/06/16 00:19:00;;;;;;;11.93;4.43;;;;;;;;;;5103323;28;20470;-64
2022/06/16 00:21:27;;;;;;;9.55;4.40;;;;;;;;;;5083255;28;20141;-64
2022/06/16 00:23:53;;;;;;;9.93;5.00;;;;;;;;;;5104260;28;20031;-64
2022/06/16 00:26:21;;;;;;;10.20;5.10;;;;;;;;;;5093258;28;20112;-64
2022/06/16 00:28:47;;;;;;;7.72;4.22;;;;;;;;;;5102272;28;20459;-64
2022/06/16 00:31:14;;;;;;;8.07;4.22;;;;;;;;;;5101173;28;20085;-64
2022/06/16 00:33:40;;;;;;;12.63;4.53;;;;;;;;;;5098926;28;20040;-64
2022/06/16 00:36:07;;;;;;;7.57;3.28;;;;;;;;;;5097245;28;20051;-64
2022/06/16 00:38:33;;;;;;;8.25;4.07;;;;;;;;;;5099476;28;20032;-64
2022/06/16 00:41:00;;;;;;;11.15;4.80;;;;;;;;;;5100150;28;20134;-64
2022/06/16 00:43:26;;;;;;;8.55;3.30;;;;;;;;;;5100186;28;20075;-64
2022/06/16 00:46:01;;;;;;;9.10;4.20;;;;;;;;;;5079841;28;20066;-64
2022/06/16 00:48:35;;;;;;;6.65;3.22;;;;;;;;;;5097735;28;20055;-64
2022/06/16 00:51:06;;;;;;;13.20;3.58;;;;;;;;;;5099826;28;20719;-64
2022/06/16 00:53:32;;;;;;;9.52;3.72;;;;;;;;;;5080426;28;20073;-64
2022/06/16 00:55:58;;;;;;;9.07;3.47;;;;;;;;;;5083438;28;20055;-64
2022/06/16 00:58:26;;;;;;;9.30;3.05;;;;;;;;;;5098816;28;20036;-64
2022/06/16 01:00:52;;;;;;;7.68;3.15;;;;;;;;;;5080447;28;22260;-64
2022/06/16 01:06:15;;;;;;;10.02;3.15;;;;;;;;;;5095858;28;20048;-64
2022/06/16 01:08:41;;;;;;;11.25;3.28;;;;;;;;;;5103093;28;20057;-64
2022/06/16 01:11:09;;;;;;;7.15;3.22;;;;;;;;;;5099037;28;20036;-64
2022/06/16 01:13:44;;;;;;;7.75;3.17;;;;;;;;;;5083098;28;20048;-64
2022/06/16 01:16:16;;;;;;;15.55;4.32;;;;;;;;;;5101191;28;20051;-65
2022/06/16 01:18:58;;;;;;;8.05;3.58;;;;;;;;;;5098854;28;20040;-64
2022/06/16 01:21:37;;;;;;;9.40;3.35;;;;;;;;;;5104193;28;20071;-64
2022/06/16 01:24:16;;;;;;;11.90;3.17;;;;;;;;;;5102071;28;20036;-64
2022/06/16 01:26:50;;;;;;;7.47;2.50;;;;;;;;;;5101543;28;20061;-64
2022/06/16 01:29:18;;;;;;;6.60;2.40;;;;;;;;;;5101045;28;20044;-64
2022/06/16 01:31:51;;;;;;;10.05;3.58;;;;;;;;;;5100796;28;22026;-64
2022/06/16 01:34:23;;;;;;;8.02;2.92;;;;;;;;;;5101627;28;20152;-64
2022/06/16 01:36:52;;;;;;;7.07;3.28;;;;;;;;;;5075422;28;20047;-65
2022/06/16 01:39:22;;;;;;;8.20;3.00;;;;;;;;;;5102833;28;20533;-64
2022/06/16 01:41:50;;;;;;;9.75;3.35;;;;;;;;;;5095679;28;20507;-64
2022/06/16 01:44:19;;;;;;;7.00;2.63;;;;;;;;;;5098172;28;20032;-64
2022/06/16 01:46:46;;;;;;;7.28;2.40;;;;;;;;;;5103540;28;20035;-64
2022/06/16 01:49:16;;;;;;;7.57;2.25;;;;;;;;;;5103098;28;20056;-64
2022/06/16 01:51:43;;;;;;;7.40;2.45;;;;;;;;;;5086350;28;20427;-64
2022/06/16 01:54:12;;;;;;;6.57;2.67;;;;;;;;;;5084092;28;20052;-64
2022/06/16 01:56:43;;;;;;;9.98;3.22;;;;;;;;;;5102853;28;20138;-64
2022/06/16 01:59:12;;;;;;;9.05;3.35;;;;;;;;;;5107440;28;20032;-64
2022/06/16 02:01:41;;;;;;;8.23;2.33;;;;;;;;;;5084084;28;20067;-64
2022/06/16 02:04:11;;;;;;;7.22;2.30;;;;;;;;;;5086648;28;20522;-65
2022/06/16 02:06:39;;;;;;;5.70;2.15;;;;;;;;;;5081517;28;20460;-64
2022/06/16 02:09:11;;;;;;;4.60;1.90;;;;;;;;;;5095207;28;20094;-64
2022/06/16 02:11:38;;;;;;;10.00;3.03;;;;;;;;;;5087037;28;20116;-64
2022/06/16 02:14:17;;;;;;;5.22;2.08;;;;;;;;;;5104253;28;20873;-64
2022/06/16 02:16:45;;;;;;;8.20;2.83;;;;;;;;;;5102770;28;20044;-64
2022/06/16 02:19:13;;;;;;;8.90;2.30;;;;;;;;;;5104389;28;20495;-64
2022/06/16 02:21:41;;;;;;;7.28;2.45;;;;;;;;;;5099166;28;20040;-64
2022/06/16 02:24:08;;;;;;;7.20;2.30;;;;;;;;;;5104314;28;20040;-64
2022/06/16 02:26:35;;;;;;;7.28;2.58;;;;;;;;;;5099632;28;20475;-64
2022/06/16 02:29:19;;;;;;;9.00;3.17;;;;;;;;;;5101539;28;20428;-64
2022/06/16 02:31:52;;;;;;;11.75;2.47;;;;;;;;;;5103133;28;20059;-64
2022/06/16 02:34:28;;;;;;;8.02;2.85;;;;;;;;;;5103350;28;20091;-64
2022/06/16 02:36:56;;;;;;;11.43;3.83;;;;;;;;;;5086517;28;20051;-64
2022/06/16 02:39:28;;;;;;;16.48;3.10;;;;;;;;;;5105448;28;20139;-64
2022/06/16 02:42:13;;;;;;;7.47;2.72;;;;;;;;;;5086895;28;20059;-65
2022/06/16 02:45:00;;;;;;;9.02;2.92;;;;;;;;;;5084321;28;20131;-64
2022/06/16 02:47:45;;;;;;;6.25;2.85;;;;;;;;;;5106355;28;20052;-64
2022/06/16 02:50:21;;;;;;;10.05;3.13;;;;;;;;;;5102843;28;20495;-64
2022/06/16 02:52:49;;;;;;;7.68;2.60;;;;;;;;;;5081717;28;20410;-64
2022/06/16 02:55:26;;;;;;;9.13;2.50;;;;;;;;;;5100488;28;20113;-64
2022/06/16 02:57:54;;;;;;;6.70;2.70;;;;;;;;;;5101040;28;20039;-64
2022/06/16 03:00:23;;;;;;;9.93;3.50;;;;;;;;;;5103906;28;20048;-64
2022/06/16 03:02:49;;;;;;;9.50;3.13;;;;;;;;;;5101660;28;20549;-64
2022/06/16 03:05:16;;;;;;;7.47;3.03;;;;;;;;;;5082579;28;20048;-64
2022/06/16 03:07:42;;;;;;;7.22;2.88;;;;;;;;;;5103531;28;20062;-64
2022/06/16 03:10:10;;;;;;;5.13;2.60;;;;;;;;;;5105759;28;20492;-64
2022/06/16 03:12:36;;;;;;;7.05;2.90;;;;;;;;;;5102524;28;20039;-64
2022/06/16 03:15:02;;;;;;;6.13;2.90;;;;;;;;;;5106011;28;20134;-64
2022/06/16 03:17:30;;;;;;;7.38;3.00;;;;;;;;;;5101445;28;20036;-64
2022/06/16 03:19:56;;;;;;;8.85;2.90;;;;;;;;;;5083997;28;20060;-64
2022/06/16 03:22:22;;;;;;;8.65;3.05;;;;;;;;;;5103539;28;20043;-64
2022/06/16 03:24:49;;;;;;;11.32;3.15;;;;;;;;;;5100909;28;20182;-64
2022/06/16 03:27:15;;;;;;;8.13;3.13;;;;;;;;;;5101385;28;20131;-64
2022/06/16 03:29:41;;;;;;;7.13;3.78;;;;;;;;;;5100944;28;20498;-64
2022/06/16 03:32:07;;;;;;;8.90;3.65;;;;;;;;;;5103621;28;20070;-64
2022/06/16 03:34:34;;;;;;;11.65;3.80;;;;;;;;;;5100925;28;20614;-64
2022/06/16 03:37:00;;;;;;;6.47;2.95;;;;;;;;;;5085488;28;20050;-64
2022/06/16 03:39:26;;;;;;;5.68;2.97;;;;;;;;;;5103246;28;20051;-64
2022/06/16 03:41:52;;;;;;;7.75;3.13;;;;;;;;;;5082098;28;20126;-64
2022/06/16 03:44:18;;;;;;;8.30;3.30;;;;;;;;;;5103344;28;20042;-64
2022/06/16 03:46:44;;;;;;;5.97;2.85;;;;;;;;;;5104885;28;20119;-64
2022/06/16 03:49:11;;;;;;;7.35;3.85;;;;;;;;;;5102764;28;20410;-64
2022/06/16 03:51:37;;;;;;;11.93;3.75;;;;;;;;;;5102824;28;20102;-64
2022/06/16 03:54:03;;;;;;;6.72;3.22;;;;;;;;;;5099745;28;20127;-64
2022/06/16 03:56:29;;;;;;;6.78;3.17;;;;;;;;;;5097719;28;20035;-65
2022/06/16 03:58:56;;;;;;;11.60;3.72;;;;;;;;;;5097857;28;20112;-64
2022/06/16 04:01:22;;;;;;;6.45;3.28;;;;;;;;;;5097920;28;20058;-64
2022/06/16 04:04:01;;;;;;;9.57;4.25;;;;;;;;;;5101030;28;20133;-64
2022/06/16 04:06:28;;;;;;;5.78;2.92;;;;;;;;;;5099211;28;20054;-68
2022/06/16 04:08:54;;;;;;;7.05;3.13;;;;;;;;;;5086063;28;20048;-63
2022/06/16 04:11:26;;;;;;;7.68;3.60;;;;;;;;;;5103812;28;20143;-64
2022/06/16 04:13:53;;;;;;;8.85;4.13;;;;;;;;;;5105298;28;20036;-64
2022/06/16 04:16:20;;;;;;;11.77;3.75;;;;;;;;;;5099999;28;20062;-64
2022/06/16 04:18:46;;;;;;;8.57;3.40;;;;;;;;;;5103639;28;20062;-64
2022/06/16 04:21:13;;;;;;;11.38;4.03;;;;;;;;;;5100819;28;20043;-64
2022/06/16 04:23:39;;;;;;;7.82;4.25;;;;;;;;;;5099798;28;20108;-64
2022/06/16 04:26:06;;;;;;;6.68;3.50;;;;;;;;;;5082414;28;20409;-64
2022/06/16 04:28:32;;;;;;;7.88;3.95;;;;;;;;;;5100057;28;20039;-63
2022/06/16 04:30:59;;;;;;;12.82;4.28;;;;;;;;;;5102761;28;20055;-64
2022/06/16 04:33:25;;;;;;;9.63;4.05;;;;;;;;;;5101210;28;20051;-64
2022/06/16 04:35:52;;;;;;;7.80;3.53;;;;;;;;;;5083699;28;20545;-64
2022/06/16 04:38:19;;;;;;;13.43;3.83;;;;;;;;;;5103497;28;20046;-64
2022/06/16 04:40:45;;;;;;;8.48;3.88;;;;;;;;;;5081234;28;20071;-64
2022/06/16 04:43:14;;;;;;;8.15;3.60;;;;;;;;;;5103044;28;20031;-64
2022/06/16 04:45:41;;;;;;;10.27;3.65;;;;;;;;;;5101166;28;20437;-64
2022/06/16 04:48:07;;;;;;;9.75;3.95;;;;;;;;;;5100769;28;20055;-63
2022/06/16 04:50:34;;;;;;;8.60;3.88;;;;;;;;;;5099503;28;20579;-64
2022/06/16 04:53:00;;;;;;;12.73;4.20;;;;;;;;;;5097686;28;20394;-64
2022/06/16 04:55:27;;;;;;;6.70;3.90;;;;;;;;;;5080701;28;20059;-64
2022/06/16 04:57:54;;;;;;;7.25;4.03;;;;;;;;;;5093352;28;20462;-64
2022/06/16 05:00:21;;;;;;;9.05;4.35;;;;;;;;;;5101229;28;20477;-63
2022/06/16 05:02:47;;;;;;;8.48;4.70;;;;;;;;;;5096275;28;20040;-64
2022/06/16 05:05:13;;;;;;;12.38;4.70;;;;;;;;;;5095699;28;20479;-64
2022/06/16 05:07:40;;;;;;;9.60;4.60;;;;;;;;;;5084727;28;20051;-64
2022/06/16 05:10:07;;;;;;;9.27;4.40;;;;;;;;;;5085329;28;20135;-64
2022/06/16 05:12:33;;;;;;;9.32;4.20;;;;;;;;;;5085021;28;20177;-64
2022/06/16 05:14:59;;;;;;;7.05;3.97;;;;;;;;;;5086159;28;20052;-64
2022/06/16 05:17:25;;;;;;;11.00;5.38;;;;;;;;;;5105763;28;20046;-64
2022/06/16 05:19:52;;;;;;;9.27;4.25;;;;;;;;;;5106206;28;20043;-64
2022/06/16 05:22:18;;;;;;;10.68;4.03;;;;;;;;;;5107524;28;20048;-64
2022/06/16 05:24:44;;;;;;;8.43;3.90;;;;;;;;;;5110688;28;20040;-64
2022/06/16 05:27:10;;;;;;;8.73;3.60;;;;;;;;;;5102238;28;21903;-64
2022/06/16 05:29:36;;;;;;;7.72;3.13;;;;;;;;;;5106833;28;20196;-64
2022/06/16 05:32:03;;;;;;;12.25;3.55;;;;;;;;;;5104416;28;20040;-64
2022/06/16 05:34:29;;;;;;;8.13;3.42;;;;;;;;;;5109247;28;20065;-64
2022/06/16 05:36:56;;;;;;;8.32;4.13;;;;;;;;;;5106289;28;20063;-64
2022/06/16 05:39:22;;;;;;;7.30;3.75;;;;;;;;;;5086648;28;20839;-64
2022/06/16 05:41:48;;;;;;;9.10;4.45;;;;;;;;;;5089869;28;20073;-65
2022/06/16 05:44:14;;;;;;;8.30;3.55;;;;;;;;;;5097662;28;20042;-64
2022/06/16 05:46:41;;;;;;;8.10;3.65;;;;;;;;;;5106979;28;20044;-65
2022/06/16 05:49:07;;;;;;;12.10;3.63;;;;;;;;;;5083996;28;20052;-65
2022/06/16 05:51:34;;;;;;;9.95;3.60;;;;;;;;;;5108409;28;20104;-65
2022/06/16 05:54:00;;;;;;;11.85;3.80;;;;;;;;;;5100998;28;20450;-64
2022/06/16 05:56:26;;;;;;;9.77;3.90;;;;;;;;;;5084211;28;20092;-64
2022/06/16 05:58:52;;;;;;;8.98;3.70;;;;;;;;;;5108331;28;20039;-64
2022/06/16 06:01:18;;;;;;;10.70;3.55;;;;;;;;;;5103018;28;20047;-64
2022/06/16 06:03:45;;;;;;;11.52;4.43;;;;;;;;;;5109588;28;20126;-64
2022/06/16 06:06:11;;;;;;;8.23;3.75;;;;;;;;;;5081219;28;20548;-64
2022/06/16 06:16:57;;;;;;;10.35;3.28;;;;;;;;;;5087263;28;20544;-64
2022/06/16 06:19:23;;;;;;;9.43;4.50;;;;;;;;;;5084010;28;20039;-64
2022/06/16 06:22:02;;;;;;;7.97;4.20;;;;;;;;;;5098920;28;20240;-64
2022/06/16 06:24:32;;;;;;;9.55;3.97;;;;;;;;;;5085541;28;20133;-64
2022/06/16 06:26:59;;;;;;;11.20;3.83;;;;;;;;;;5107111;28;20044;-64
2022/06/16 06:29:26;;;;;;;6.85;3.28;;;;;;;;;;5090076;28;20380;-64
2022/06/16 06:31:52;;;;;;;8.02;3.40;;;;;;;;;;5106996;28;20031;-64
2022/06/16 06:34:18;;;;;;;9.82;3.45;;;;;;;;;;5104413;28;20343;-64
2022/06/16 06:36:44;;;;;;;13.27;3.67;;;;;;;;;;5108181;28;20108;-64
2022/06/16 06:39:12;;;;;;;8.98;4.30;;;;;;;;;;5100967;28;20122;-64
2022/06/16 06:41:39;;;;;;;8.38;3.25;;;;;;;;;;5082831;28;20159;-64
2022/06/16 06:44:05;;;;;;;7.40;3.20;;;;;;;;;;5082820;28;20441;-64
2022/06/16 06:46:31;;;;;;;12.13;3.80;;;;;;;;;;5107499;28;20043;-64
2022/06/16 06:48:57;;;;;;;6.90;3.10;;;;;;;;;;5106627;28;20196;-64
2022/06/16 06:51:24;;;;;;;7.70;3.25;;;;;;;;;;5105867;28;20045;-64
2022/06/16 06:53:50;;;;;;;13.43;4.00;;;;;;;;;;5098844;28;20032;-64
2022/06/16 06:56:16;;;;;;;8.35;2.60;;;;;;;;;;5103276;28;20051;-64
2022/06/16 06:58:43;;;;;;;5.95;2.28;;;;;;;;;;5101211;28;20058;-64
2022/06/16 07:01:09;;;;;;;8.98;2.78;;;;;;;;;;5078187;28;20109;-64
2022/06/16 07:03:35;;;;;;;7.43;2.45;;;;;;;;;;5101660;28;20334;-64
2022/06/16 07:06:02;;;;;;;7.05;3.10;;;;;;;;;;5085283;28;20078;-64
2022/06/16 07:08:29;;;;;;;6.60;3.00;;;;;;;;;;5088862;28;20040;-65
2022/06/16 07:10:55;;;;;;;7.43;2.88;;;;;;;;;;5104130;28;20035;-65
2022/06/16 07:13:21;;;;;;;8.55;3.17;;;;;;;;;;5102620;28;20047;-64
2022/06/16 07:15:47;;;;;;;7.85;3.30;;;;;;;;;;5104496;28;20054;-64
2022/06/16 07:18:14;;;;;;;7.93;3.28;;;;;;;;;;5084176;28;20123;-65
2022/06/16 07:20:40;;;;;;;9.15;3.20;;;;;;;;;;5108383;28;20036;-65
2022/06/16 07:23:06;;;;;;;8.63;3.03;;;;;;;;;;5104319;28;20163;-65
2022/06/16 07:25:32;;;;;;;11.25;3.83;;;;;;;;;;5099940;28;20040;-64
2022/06/16 07:28:00;;;;;;;7.97;3.42;;;;;;;;;;5082286;28;20040;-65
2022/06/16 07:30:27;;;;;;;9.00;3.00;;;;;;;;;;5106256;28;20055;-64
2022/06/16 07:32:53;;;;;;;9.07;3.20;;;;;;;;;;5098365;28;20051;-64
2022/06/16 07:35:20;;;;;;;8.00;3.22;;;;;;;;;;5099605;28;20058;-65
2022/06/16 07:37:47;;;;;;;8.98;3.50;;;;;;;;;;5102723;28;20051;-64
2022/06/16 07:40:13;;;;;;;6.20;2.67;;;;;;;;;;5102359;28;20156;-64
2022/06/16 07:42:40;;;;;;;8.45;3.13;;;;;;;;;;5105585;28;20185;-64
2022/06/16 07:45:07;;;;;;;9.00;2.88;;;;;;;;;;5094018;28;20040;-64
2022/06/16 07:47:33;;;;;;;8.55;3.17;;;;;;;;;;5099878;28;20092;-64
2022/06/16 07:50:01;;;;;;;9.32;3.25;;;;;;;;;;5101818;28;20513;-65
2022/06/16 07:52:29;;;;;;;7.78;2.88;;;;;;;;;;5106319;28;20043;-64
2022/06/16 07:54:55;;;;;;;9.70;2.67;;;;;;;;;;5083034;28;20044;-64
2022/06/16 07:57:22;;;;;;;6.53;2.35;;;;;;;;;;5100528;28;20063;-64
2022/06/16 07:59:52;;;;;;;7.10;2.10;;;;;;;;;;5101811;28;20062;-64
2022/06/16 08:02:18;;;;;;;4.90;2.17;;;;;;;;;;5094848;28;20044;-64
2022/06/16 08:04:44;;;;;;;6.55;1.88;;;;;;;;;;5107179;28;20036;-64
2022/06/16 08:07:10;;;;;;;5.18;2.30;;;;;;;;;;5087034;28;20048;-64
2022/06/16 08:09:38;;;;;;;6.15;2.33;;;;;;;;;;5101339;28;20039;-64
2022/06/16 08:12:08;;;;;;;7.72;2.50;;;;;;;;;;5077896;28;20055;-64
2022/06/16 08:14:38;;;;;;;6.90;2.20;;;;;;;;;;5101863;28;20047;-64
2022/06/16 08:17:07;;;;;;;5.72;2.10;;;;;;;;;;5104447;28;20047;-64
2022/06/16 08:19:33;;;;;;;6.18;2.40;;;;;;;;;;5104385;28;20043;-64
2022/06/16 08:22:00;;;;;;;12.50;2.20;;;;;;;;;;5087099;28;20043;-65
2022/06/16 08:24:26;;;;;;;7.85;1.92;;;;;;;;;;5104463;28;20040;-64
2022/06/16 08:26:52;;;;;;;6.60;2.13;;;;;;;;;;5080862;28;20044;-64
2022/06/16 08:29:19;;;;;;;6.80;2.22;;;;;;;;;;5105376;28;20041;-64
2022/06/16 08:31:45;;;;;;;6.68;2.22;;;;;;;;;;5085584;28;20380;-64
2022/06/16 08:34:12;;;;;;;6.75;2.42;;;;;;;;;;5089020;28;20123;-64
2022/06/16 08:36:38;;;;;;;6.88;2.00;;;;;;;;;;5102860;28;20539;-65
2022/06/16 08:39:06;;;;;;;7.03;2.42;;;;;;;;;;5097282;28;20118;-64
2022/06/16 08:41:41;;;;;;;4.88;2.08;;;;;;;;;;5086769;28;20043;-64
2022/06/16 08:44:15;;;;;;;5.90;2.63;;;;;;;;;;5100611;28;20109;-64
2022/06/16 08:46:45;;;;;;;8.55;2.53;;;;;;;;;;5100539;28;20755;-65
2022/06/16 08:49:19;;;;;;;6.40;2.30;;;;;;;;;;5095872;28;20085;-65
2022/06/16 08:51:52;;;;;;;4.55;1.80;;;;;;;;;;5107380;28;20107;-66
2022/06/16 08:54:37;;;;;;;8.98;2.42;;;;;;;;;;5100685;28;20123;-64
2022/06/16 08:57:03;;;;;;;5.25;2.38;;;;;;;;;;5107077;28;20040;-64
2022/06/16 08:59:37;;;;;;;6.53;2.50;;;;;;;;;;5057051;28;20119;-64
2022/06/16 09:02:08;;;;;;;8.07;2.55;;;;;;;;;;5100142;28;20044;-64
2022/06/16 09:04:38;;;;;;;4.63;1.73;;;;;;;;;;5104051;28;20388;-64
2022/06/16 09:07:11;;;;;;;8.55;2.60;;;;;;;;;;5102434;28;20036;-64
2022/06/16 09:12:29;;;;;;;7.22;2.40;;;;;;;;;;5103971;28;20083;-64
2022/06/16 09:15:11;;;;;;;7.07;2.30;;;;;;;;;;5105857;28;20035;-64
2022/06/16 09:17:47;;;;;;;7.13;2.40;;;;;;;;;;5099668;28;20064;-64
2022/06/16 09:20:14;;;;;;;5.82;2.40;;;;;;;;;;5099919;28;20462;-64
2022/06/16 09:22:43;;;;;;;8.82;2.83;;;;;;;;;;5085815;28;20118;-64
2022/06/16 09:25:13;;;;;;;8.73;2.40;;;;;;;;;;5103857;28;20047;-64
2022/06/16 09:27:43;;;;;;;5.97;2.78;;;;;;;;;;5099331;28;20327;-64
2022/06/16 09:30:09;;;;;;;6.78;2.63;;;;;;;;;;5097785;28;20039;-64
2022/06/16 09:32:38;;;;;;;6.25;2.47;;;;;;;;;;5103085;28;20044;-64
2022/06/16 09:35:13;;;;;;;9.07;2.75;;;;;;;;;;5086109;28;20036;-64
2022/06/16 09:37:44;;;;;;;4.70;2.47;;;;;;;;;;5103604;28;20154;-64
2022/06/16 09:40:14;;;;;;;7.72;2.70;;;;;;;;;;5092496;28;20423;-64
2022/06/16 09:42:45;;;;;;;7.30;2.60;;;;;;;;;;5084777;28;20054;-64
2022/06/16 09:45:19;;;;;;;7.50;2.50;;;;;;;;;;5100651;28;20048;-64
2022/06/16 09:47:47;;;;;;;7.28;2.63;;;;;;;;;;5100060;28;20109;-64
2022/06/16 09:50:29;;;;;;;8.30;2.70;;;;;;;;;;5103801;28;20079;-64
2022/06/16 09:52:56;;;;;;;5.72;2.40;;;;;;;;;;5101181;28;20035;-64
2022/06/16 09:55:28;;;;;;;5.20;2.47;;;;;;;;;;5103908;28;20433;-64
2022/06/16 09:57:59;;;;;;;5.53;2.40;;;;;;;;;;5100277;28;20143;-64
2022/06/16 10:00:27;;;;;;;5.40;2.28;;;;;;;;;;5085857;28;20055;-64
2022/06/16 10:02:55;;;;;;;4.88;2.35;;;;;;;;;;5086966;28;20619;-65
2022/06/16 10:05:29;;;;;;;6.57;2.40;;;;;;;;;;5106308;28;20044;-64
2022/06/16 10:08:05;;;;;;;7.40;2.88;;;;;;;;;;5104719;28;20120;-64
2022/06/16 10:10:31;;;;;;;8.32;2.13;;;;;;;;;;5103929;28;20083;-64
2022/06/16 10:13:11;;;;;;;6.07;2.40;;;;;;;;;;5106331;28;20503;-65
2022/06/16 10:15:43;;;;;;;5.13;2.38;;;;;;;;;;5106711;28;20036;-64
2022/06/16 10:18:10;;;;;;;5.00;2.55;;;;;;;;;;5108170;28;20039;-64
2022/06/16 10:20:37;;;;;;;6.30;2.35;;;;;;;;;;5109393;28;20039;-64
2022/06/16 10:23:13;;;;;;;7.00;2.28;;;;;;;;;;5104602;28;20046;-64
2022/06/16 10:25:43;;;;;;;5.15;2.20;;;;;;;;;;5104330;28;20173;-66
2022/06/16 10:28:29;;;;;;;7.63;3.28;;;;;;;;;;5107021;28;20042;-64
2022/06/16 10:30:55;;;;;;;5.95;2.42;;;;;;;;;;5103165;28;20586;-64
2022/06/16 10:33:24;;;;;;;9.38;2.60;;;;;;;;;;5084810;28;20043;-64
2022/06/16 10:35:53;;;;;;;6.63;2.17;;;;;;;;;;5107654;28;20405;-64
2022/06/16 10:38:32;;;;;;;9.13;2.67;;;;;;;;;;5109844;28;20051;-64
2022/06/16 10:40:59;;;;;;;7.85;2.53;;;;;;;;;;5105077;28;20047;-64
2022/06/16 10:43:26;;;;;;;4.97;2.45;;;;;;;;;;5102667;28;20509;-65
2022/06/16 10:45:58;;;;;;;6.68;2.60;;;;;;;;;;5102943;28;20043;-65
2022/06/16 10:48:28;;;;;;;4.53;2.25;;;;;;;;;;5105599;28;20400;-65
2022/06/16 10:51:03;;;;;;;5.80;2.50;;;;;;;;;;5085028;28;20043;-65
2022/06/16 10:53:33;;;;;;;5.95;2.55;;;;;;;;;;5108730;28;20035;-65
2022/06/16 10:56:07;;;;;;;5.80;2.00;;;;;;;;;;5084956;28;20044;-64
2022/06/16 10:58:42;;;;;;;6.13;2.30;;;;;;;;;;5091971;28;20393;-64
2022/06/16 11:01:16;;;;;;;8.10;2.40;;;;;;;;;;5104469;28;20050;-64
2022/06/16 11:03:45;;;;;;;5.97;2.55;;;;;;;;;;5107598;28;20050;-64
2022/06/16 11:06:13;;;;;;;5.00;2.00;;;;;;;;;;5082882;28;20048;-64
2022/06/16 11:08:42;;;;;;;4.85;1.90;;;;;;;;;;5106641;28;20050;-65
2022/06/16 11:11:09;;;;;;;7.82;2.05;;;;;;;;;;5104959;28;20052;-64
2022/06/16 11:13:37;;;;;;;5.45;1.80;;;;;;;;;;5106381;28;20089;-64
2022/06/16 11:16:08;;;;;;;5.22;2.17;;;;;;;;;;5107497;28;20042;-64
2022/06/16 11:18:37;;;;;;;9.77;2.22;;;;;;;;;;5085756;28;20047;-64
2022/06/16 11:21:13;;;;;;;4.53;2.00;;;;;;;;;;5093516;28;20048;-64
2022/06/16 11:23:44;;;;;;;3.53;1.63;;;;;;;;;;5104763;28;20036;-64
2022/06/16 11:26:16;;;;;;;6.00;2.20;;;;;;;;;;5074477;28;20052;-64
2022/06/16 11:28:44;;;;;;;5.03;2.15;;;;;;;;;;5092558;28;20036;-64
2022/06/16 11:31:14;;;;;;;6.22;1.92;;;;;;;;;;5101981;28;20036;-64
2022/06/16 11:36:40;;;;;;;3.67;1.63;;;;;;;;;;5093291;28;20087;-64
2022/06/16 11:39:18;;;;;;;6.22;2.08;;;;;;;;;;5089355;28;20395;-64
2022/06/16 11:41:46;;;;;;;4.28;1.90;;;;;;;;;;5093040;28;20040;-64
2022/06/16 11:44:29;;;;;;;5.20;1.92;;;;;;;;;;5093016;28;20036;-64
2022/06/16 11:47:07;;;;;;;5.10;1.88;;;;;;;;;;5092199;28;20040;-65
2022/06/16 11:49:37;;;;;;;6.88;2.00;;;;;;;;;;5071916;28;20491;-64
2022/06/16 11:52:10;;;;;;;6.60;2.00;;;;;;;;;;5111349;28;20046;-64
2022/06/16 11:54:44;;;;;;;3.72;1.50;;;;;;;;;;5113406;28;20380;-64
2022/06/16 11:57:11;;;;;;;3.33;1.63;;;;;;;;;;5094800;28;20127;-64
2022/06/16 11:59:47;;;;;;;3.00;1.52;;;;;;;;;;5106238;28;20566;-64
2022/06/16 12:02:20;;;;;;;6.07;1.90;;;;;;;;;;5104109;28;20047;-64
2022/06/16 12:04:52;;;;;;;7.38;2.03;;;;;;;;;;5093717;28;20145;-64
2022/06/16 12:07:31;;;;;;;6.65;2.17;;;;;;;;;;5073816;28;20059;-64
2022/06/16 12:09:58;;;;;;;3.95;1.70;;;;;;;;;;5092591;28;20076;-64
2022/06/16 12:12:27;;;;;;;5.25;1.73;;;;;;;;;;5097797;28;20044;-64
2022/06/16 12:14:53;;;;;;;4.65;2.13;;;;;;;;;;5091592;28;20040;-64
2022/06/16 12:17:23;;;;;;;5.75;1.67;;;;;;;;;;5092655;28;20079;-64
2022/06/16 12:19:58;;;;;;;5.18;1.70;;;;;;;;;;5092392;28;20028;-64
2022/06/16 12:22:29;;;;;;;4.28;1.40;;;;;;;;;;5103024;28;20140;-64
2022/06/16 12:25:01;;;;;;;4.35;1.50;;;;;;;;;;5094114;28;20036;-64
2022/06/16 12:27:38;;;;;;;8.20;1.58;;;;;;;;;;5090783;28;20097;-64
2022/06/16 12:30:09;;;;;;;6.05;1.80;;;;;;;;;;5092193;28;20040;-64
2022/06/16 12:32:49;;;;;;;7.45;2.05;;;;;;;;;;5098135;28;20179;-64
2022/06/16 12:35:46;;;;;;;4.38;1.58;;;;;;;;;;5087561;28;20043;-64
2022/06/16 12:38:16;;;;;;;7.05;1.60;;;;;;;;;;5089474;28;20044;-64
2022/06/16 12:40:45;;;;;;;7.22;1.83;;;;;;;;;;5092129;28;20135;-64
2022/06/16 12:43:18;;;;;;;5.18;1.90;;;;;;;;;;5095803;28;20123;-64
2022/06/16 12:45:47;;;;;;;5.07;1.67;;;;;;;;;;5092033;28;20219;-64
2022/06/16 12:48:15;;;;;;;4.60;1.63;;;;;;;;;;5073766;28;20055;-64
2022/06/16 12:50:45;;;;;;;8.30;1.88;;;;;;;;;;5091152;28;20048;-64
2022/06/16 12:53:15;;;;;;;5.15;2.13;;;;;;;;;;5095223;28;20142;-64
2022/06/16 12:55:45;;;;;;;4.57;1.80;;;;;;;;;;5085712;28;20057;-64
2022/06/16 12:58:15;;;;;;;6.05;1.70;;;;;;;;;;5091789;28;20067;-64
2022/06/16 13:00:44;;;;;;;6.03;1.70;;;;;;;;;;5073473;28;20044;-64
2022/06/16 13:03:16;;;;;;;6.85;1.80;;;;;;;;;;5074715;28;20050;-64
2022/06/16 13:05:42;;;;;;;4.55;1.30;;;;;;;;;;5073768;28;20043;-64
2022/06/16 13:08:09;;;;;;;4.80;1.35;;;;;;;;;;5091810;28;20117;-64
2022/06/16 13:10:37;;;;;;;4.93;1.70;;;;;;;;;;5085089;28;20150;-64
2022/06/16 13:13:04;;;;;;;4.80;1.60;;;;;;;;;;5093652;28;20062;-64
2022/06/16 13:15:33;;;;;;;5.65;2.10;;;;;;;;;;5091597;28;20422;-64
2022/06/16 13:18:01;;;;;;;6.47;1.77;;;;;;;;;;5090914;28;20044;-64
2022/06/16 13:20:29;;;;;;;5.10;1.88;;;;;;;;;;5091718;28;20596;-64
2022/06/16 13:22:59;;;;;;;6.05;1.60;;;;;;;;;;5102703;28;20044;-64
2022/06/16 13:25:40;;;;;;;6.65;2.00;;;;;;;;;;5092181;28;20097;-64
2022/06/16 13:28:10;;;;;;;4.60;1.75;;;;;;;;;;5104319;28;20058;-64
2022/06/16 13:30:39;;;;;;;8.07;2.22;;;;;;;;;;5091667;28;20039;-64
2022/06/16 13:33:06;;;;;;;5.13;1.90;;;;;;;;;;5091429;28;20043;-64
2022/06/16 13:35:32;;;;;;;5.35;1.75;;;;;;;;;;5093770;28;20036;-64
2022/06/16 13:38:02;;;;;;;7.22;2.28;;;;;;;;;;5092652;28;20074;-64
2022/06/16 13:40:30;;;;;;;5.97;1.90;;;;;;;;;;5077182;28;20059;-64
2022/06/16 13:42:57;;;;;;;5.85;1.75;;;;;;;;;;5095598;28;20356;-64
2022/06/16 13:45:26;;;;;;;4.88;1.65;;;;;;;;;;5095113;28;20474;-64
2022/06/16 13:48:09;;;;;;;5.40;2.13;;;;;;;;;;5084142;28;20108;-64
2022/06/16 13:50:48;;;;;;;6.25;1.90;;;;;;;;;;5099604;28;20040;-64
2022/06/16 13:53:16;;;;;;;4.72;1.77;;;;;;;;;;5094547;28;20118;-64
2022/06/16 13:55:46;;;;;;;5.43;1.88;;;;;;;;;;5110543;28;20075;-64
2022/06/16 13:58:31;;;;;;;5.82;1.70;;;;;;;;;;5115724;28;20119;-64
2022/06/16 14:01:03;;;;;;;7.30;1.80;;;;;;;;;;5114392;28;20047;-64
2022/06/16 14:03:30;;;;;;;7.45;2.28;;;;;;;;;;5096885;28;20424;-64
2022/06/16 14:06:02;;;;;;;6.43;2.40;;;;;;;;;;5111115;28;20047;-64
2022/06/16 14:08:29;;;;;;;7.20;2.50;;;;;;;;;;5095030;28;20044;-64
2022/06/16 14:11:14;;;;;;;6.53;2.33;;;;;;;;;;5094738;28;20560;-64
2022/06/16 14:13:44;;;;;;;5.45;2.47;;;;;;;;;;5093895;28;20040;-64
2022/06/16 14:16:10;;;;;;;6.65;2.20;;;;;;;;;;5084377;28;20083;-64
2022/06/16 14:18:48;;;;;;;7.95;1.95;;;;;;;;;;5094937;28;20044;-64
2022/06/16 14:21:15;;;;;;;5.97;1.75;;;;;;;;;;5074383;28;20071;-63
2022/06/16 14:23:44;;;;;;;6.53;2.95;;;;;;;;;;5105992;28;20047;-64
2022/06/16 14:26:14;;;;;;;6.15;1.65;;;;;;;;;;5094973;28;20054;-64
2022/06/16 14:28:43;;;;;;;4.80;2.05;;;;;;;;;;5096655;28;20050;-64
2022/06/16 14:31:14;;;;;;;8.13;2.10;;;;;;;;;;5096940;28;20095;-64
2022/06/16 14:33:45;;;;;;;7.80;2.08;;;;;;;;;;5080767;28;20047;-64
2022/06/16 14:36:14;;;;;;;6.65;2.38;;;;;;;;;;5103767;28;20089;-64
2022/06/16 14:38:59;;;;;;;5.55;2.08;;;;;;;;;;5108854;28;20487;-64
2022/06/16 14:41:25;;;;;;;5.88;2.20;;;;;;;;;;5103605;28;20039;-64
2022/06/16 14:43:56;;;;;;;5.00;2.08;;;;;;;;;;5107099;27;20035;-64
2022/06/16 14:46:26;;;;;;;5.10;2.00;;;;;;;;;;5107733;28;20055;-64
2022/06/16 14:48:55;;;;;;;4.40;1.70;;;;;;;;;;5106104;28;20495;-64
2022/06/16 14:51:24;;;;;;;9.35;2.10;;;;;;;;;;5110075;28;20443;-64
2022/06/16 14:53:53;;;;;;;5.60;1.98;;;;;;;;;;5102907;28;20123;-65
2022/06/16 14:56:21;;;;;;;5.63;2.33;;;;;;;;;;5103566;28;20337;-64
2022/06/16 14:58:54;;;;;;;6.35;1.92;;;;;;;;;;5084987;28;20847;-63
2022/06/16 15:01:23;;;;;;;5.50;2.30;;;;;;;;;;5103732;28;20055;-63
2022/06/16 15:03:50;;;;;;;4.78;2.10;;;;;;;;;;5100991;28;20124;-63
2022/06/16 15:06:17;;;;;;;10.05;2.30;;;;;;;;;;5099694;28;20050;-64
2022/06/16 15:08:44;;;;;;;5.88;1.95;;;;;;;;;;5078351;28;20150;-64
2022/06/16 15:11:12;;;;;;;5.68;2.13;;;;;;;;;;5100155;28;20531;-63